Time;durP1;ratioP1;P1;durP2;ratioP2;P2;SDS_P1;SDS_P2;PMS_P1;PMS_P2;Temp;Humidity;BMP_temperature;BMP_pressure;BME280_temperature;BME280_humidity;BME280_pressure;Samples;Min_cycle;Max_cycle;Signal;HPM_P1;HPM_P2
2021/05/01 00:01:12;;;;;;;10.03;9.03;;;;;;;7.71;100.00;101567.29;1879252;76;26694;-81
2021/05/01 00:03:43;;;;;;;10.50;9.40;;;;;;;7.62;100.00;101559.09;1879189;76;26276;-81
2021/05/01 00:06:12;;;;;;;10.97;9.63;;;;;;;7.18;100.00;101564.90;1879270;76;26207;-81
2021/05/01 00:08:42;;;;;;;12.07;10.70;;;;;;;6.57;100.00;101572.94;1879089;76;26183;-81
2021/05/01 00:11:12;;;;;;;12.43;11.07;;;;;;;6.79;100.00;101569.31;1806620;78;26212;-81
2021/05/01 00:13:42;;;;;;;11.23;10.13;;;;;;;7.31;100.00;101563.77;1879306;76;26194;-80
2021/05/01 00:16:13;;;;;;;13.83;11.00;;;;;;;6.70;100.00;101564.41;1803187;78;26301;-80
2021/05/01 00:18:43;;;;;;;12.00;10.70;;;;;;;6.86;100.00;101561.73;1801431;79;26215;-81
2021/05/01 00:21:13;;;;;;;12.03;10.23;;;;;;;7.17;100.00;101559.61;1872455;76;26653;-82
2021/05/01 00:23:43;;;;;;;12.47;10.20;;;;;;;7.29;100.00;101552.95;1802291;78;26687;-80
2021/05/01 00:26:13;;;;;;;12.83;11.00;;;;;;;7.13;100.00;101547.38;1801398;78;26255;-79
2021/05/01 00:28:43;;;;;;;12.50;11.30;;;;;;;7.20;100.00;101551.66;1875531;76;26179;-80
2021/05/01 00:31:14;;;;;;;11.93;10.73;;;;;;;7.14;100.00;101549.05;1804474;78;26282;-80
2021/05/01 00:33:44;;;;;;;12.87;11.43;;;;;;;7.13;100.00;101552.90;1802460;78;26769;-80
2021/05/01 00:36:14;;;;;;;12.20;10.90;;;;;;;7.00;100.00;101555.40;1874435;76;26207;-80
2021/05/01 00:38:44;;;;;;;12.17;10.87;;;;;;;7.02;100.00;101549.07;1802728;78;26728;-80
2021/05/01 00:41:15;;;;;;;12.40;10.70;;;;;;;6.99;100.00;101548.19;1801351;79;26611;-80
2021/05/01 00:43:47;;;;;;;14.83;11.00;;;;;;;7.01;100.00;101550.18;1859668;77;26247;-80
2021/05/01 00:46:17;;;;;;;11.10;9.97;;;;;;;6.89;100.00;101547.97;1878462;76;26703;-80
2021/05/01 00:48:47;;;;;;;11.17;10.03;;;;;;;6.55;100.00;101551.09;1879123;76;26715;-80
2021/05/01 00:51:17;;;;;;;12.60;11.30;;;;;;;6.40;100.00;101561.25;1804503;78;26619;-80
2021/05/01 00:53:47;;;;;;;11.87;10.67;;;;;;;6.51;100.00;101558.17;1806499;78;26270;-80
2021/05/01 00:56:18;;;;;;;12.53;11.23;;;;;;;6.34;100.00;101553.92;1801806;78;26225;-80
2021/05/01 00:58:48;;;;;;;14.33;12.30;;;;;;;6.19;100.00;101554.95;1877488;76;26775;-82
2021/05/01 01:01:18;;;;;;;13.90;12.47;;;;;;;6.21;100.00;101554.16;1804392;78;26216;-82
2021/05/01 01:03:50;;;;;;;12.97;11.60;;;;;;;6.42;100.00;101552.71;1879295;76;26675;-82
2021/05/01 01:06:21;;;;;;;16.50;13.33;;;;;;;6.53;100.00;101553.80;1801923;78;26247;-82
2021/05/01 01:08:51;;;;;;;14.83;12.50;;;;;;;6.54;100.00;101551.34;1801567;79;26679;-81
2021/05/01 01:11:20;;;;;;;13.10;11.67;;;;;;;6.58;100.00;101551.16;1801451;79;26263;-82
2021/05/01 01:13:52;;;;;;;13.27;11.87;;;;;;;6.64;100.00;101548.80;1803534;79;26310;-82
2021/05/01 01:16:24;;;;;;;13.00;11.70;;;;;;;6.70;100.00;101550.06;1873753;76;26633;-81
2021/05/01 01:18:54;;;;;;;14.97;13.30;;;;;;;6.67;100.00;101553.86;1879122;76;26180;-82
2021/05/01 01:21:24;;;;;;;12.93;11.63;;;;;;;6.57;100.00;101547.56;1802280;78;26608;-82
2021/05/01 01:23:55;;;;;;;13.07;11.67;;;;;;;6.55;100.00;101553.00;1803459;79;26647;-81
2021/05/01 01:26:24;;;;;;;13.83;11.93;;;;;;;6.46;100.00;101545.63;1878084;76;26191;-82
2021/05/01 01:28:54;;;;;;;13.43;11.73;;;;;;;6.44;100.00;101545.59;1803321;78;26244;-81
2021/05/01 01:31:24;;;;;;;12.60;11.23;;;;;;;6.28;100.00;101550.77;1867077;76;26634;-81
2021/05/01 01:33:54;;;;;;;12.67;11.27;;;;;;;5.97;100.00;101541.97;1879218;76;26180;-81
2021/05/01 01:36:24;;;;;;;13.30;11.87;;;;;;;5.96;100.00;101549.41;1802460;78;26224;-81
2021/05/01 01:38:54;;;;;;;13.70;12.27;;;;;;;6.00;100.00;101555.28;1859763;77;26195;-81
2021/05/01 01:41:25;;;;;;;13.07;11.70;;;;;;;5.94;100.00;101544.68;1866329;76;26271;-81
2021/05/01 01:43:55;;;;;;;12.90;11.50;;;;;;;5.77;100.00;101543.13;1802421;78;26208;-81
2021/05/01 01:46:25;;;;;;;12.10;10.87;;;;;;;5.59;100.00;101545.95;1802735;78;26212;-81
2021/05/01 01:48:55;;;;;;;12.83;11.07;;;;;;;5.57;100.00;101541.20;1873635;76;26178;-81
2021/05/01 01:51:25;;;;;;;14.23;12.23;;;;;;;5.45;100.00;101549.44;1873670;76;26191;-81
2021/05/01 01:53:55;;;;;;;12.53;10.60;;;;;;;5.40;100.00;101548.45;1876395;76;26194;-81
2021/05/01 01:56:26;;;;;;;11.60;10.40;;;;;;;5.37;100.00;101546.17;1804375;78;26235;-81
2021/05/01 01:58:57;;;;;;;11.70;10.50;;;;;;;5.35;100.00;101551.06;1801982;78;26346;-81
2021/05/01 02:01:27;;;;;;;14.83;11.23;;;;;;;5.35;100.00;101549.15;1873546;76;26208;-81
2021/05/01 02:03:57;;;;;;;12.50;11.17;;;;;;;5.30;100.00;101545.44;1876110;76;26231;-80
2021/05/01 02:06:26;;;;;;;12.03;10.27;;;;;;;5.45;100.00;101543.92;1879190;76;26178;-80
2021/05/01 02:08:57;;;;;;;11.50;9.70;;;;;;;5.36;100.00;101548.08;1802312;78;26290;-81
2021/05/01 02:11:26;;;;;;;12.07;10.40;;;;;;;5.26;100.00;101544.22;1859790;77;26161;-80
2021/05/01 02:13:56;;;;;;;10.87;9.77;;;;;;;5.28;100.00;101548.95;1859721;77;26299;-79
2021/05/01 02:16:26;;;;;;;10.30;9.20;;;;;;;5.18;100.00;101542.61;1863034;76;26603;-80
2021/05/01 02:18:56;;;;;;;11.20;9.40;;;;;;;5.19;100.00;101548.97;1879000;76;26266;-80
2021/05/01 02:21:26;;;;;;;10.57;9.20;;;;;;;5.19;100.00;101544.30;1879093;76;26241;-81
2021/05/01 02:23:57;;;;;;;11.93;10.73;;;;;;;5.16;100.00;101543.39;1879061;76;26190;-80
2021/05/01 02:26:26;;;;;;;10.90;9.80;;;;;;;5.29;100.00;101551.48;1801623;78;26294;-80
2021/05/01 02:28:56;;;;;;;10.90;9.67;;;;;;;5.24;100.00;101544.45;1873750;74;26219;-81
2021/05/01 02:31:26;;;;;;;11.43;9.73;;;;;;;5.19;100.00;101545.67;1879116;76;26297;-81
2021/05/01 02:33:56;;;;;;;10.63;9.40;;;;;;;5.07;100.00;101549.45;1879045;76;26203;-80
2021/05/01 02:36:26;;;;;;;11.57;9.77;;;;;;;5.05;100.00;101544.16;1878957;76;26178;-80
2021/05/01 02:38:56;;;;;;;11.70;10.33;;;;;;;4.97;100.00;101548.08;1879012;76;26171;-80
2021/05/01 02:41:25;;;;;;;10.67;9.57;;;;;;;5.08;100.00;101548.38;1879052;76;26183;-80
2021/05/01 02:43:55;;;;;;;11.53;9.50;;;;;;;5.17;100.00;101547.00;1879077;76;26171;-80
2021/05/01 02:46:25;;;;;;;9.13;8.27;;;;;;;5.21;100.00;101546.83;1879207;76;26666;-81
2021/05/01 02:48:56;;;;;;;10.40;9.40;;;;;;;5.12;100.00;101549.06;1879010;76;26629;-80
2021/05/01 02:51:26;;;;;;;10.07;9.10;;;;;;;5.06;100.00;101551.36;1879011;76;26347;-80
2021/05/01 02:53:56;;;;;;;10.63;9.07;;;;;;;4.95;100.00;101555.75;1879077;76;26237;-81
2021/05/01 02:56:26;;;;;;;10.43;9.37;;;;;;;4.85;100.00;101560.95;1878912;76;26267;-80
2021/05/01 02:58:56;;;;;;;11.30;9.87;;;;;;;4.76;100.00;101558.72;1879043;76;26687;-81
2021/05/01 03:01:26;;;;;;;10.63;9.53;;;;;;;4.82;100.00;101555.06;1879131;76;26617;-81
2021/05/01 03:03:55;;;;;;;11.43;10.27;;;;;;;4.79;100.00;101554.97;1878964;76;26225;-81
2021/05/01 03:06:25;;;;;;;12.77;10.30;;;;;;;4.68;100.00;101552.16;1879051;76;26182;-81
2021/05/01 03:08:55;;;;;;;11.40;10.20;;;;;;;4.63;100.00;101554.21;1803961;78;26217;-81
2021/05/01 03:11:25;;;;;;;11.37;10.27;;;;;;;4.57;100.00;101549.64;1873627;76;26694;-81
2021/05/01 03:13:57;;;;;;;12.60;11.27;;;;;;;4.62;100.00;101547.59;1873659;76;26252;-80
2021/05/01 03:16:27;;;;;;;11.90;10.40;;;;;;;4.63;100.00;101546.48;1873526;76;26686;-80
2021/05/01 03:18:57;;;;;;;12.87;10.60;;;;;;;4.58;100.00;101547.17;1873870;76;26638;-81
2021/05/01 03:21:26;;;;;;;12.00;10.80;;;;;;;4.63;100.00;101545.95;1805206;78;26197;-80
2021/05/01 03:23:56;;;;;;;13.20;11.17;;;;;;;4.62;100.00;101546.20;1859672;77;26248;-80
2021/05/01 03:26:26;;;;;;;12.20;10.97;;;;;;;4.62;100.00;101545.64;1859676;77;26626;-81
2021/05/01 03:28:56;;;;;;;12.77;11.47;;;;;;;4.71;100.00;101543.43;1859593;75;26730;-80
2021/05/01 03:31:26;;;;;;;12.70;11.40;;;;;;;4.61;100.00;101542.61;1859646;77;26653;-80
2021/05/01 03:33:56;;;;;;;12.23;10.93;;;;;;;4.59;100.00;101533.20;1859640;77;26688;-80
2021/05/01 03:36:26;;;;;;;13.60;11.40;;;;;;;4.56;100.00;101543.30;1859739;77;26248;-80
2021/05/01 03:38:56;;;;;;;12.20;11.00;;;;;;;4.55;100.00;101542.14;1866543;76;26674;-80
2021/05/01 03:41:26;;;;;;;14.30;10.83;;;;;;;4.52;100.00;101545.36;1801614;78;26311;-80
2021/05/01 03:43:56;;;;;;;11.93;10.73;;;;;;;4.56;100.00;101547.42;1803545;79;26213;-80
2021/05/01 03:46:26;;;;;;;12.40;10.23;;;;;;;4.53;100.00;101549.80;1874060;76;26201;-79
2021/05/01 03:48:56;;;;;;;13.57;11.43;;;;;;;4.56;100.00;101539.17;1879021;76;26653;-79
2021/05/01 03:51:27;;;;;;;12.00;10.80;;;;;;;4.49;100.00;101548.57;1802012;78;26275;-80
2021/05/01 03:54:14;;;;;;;15.00;11.40;;;;;;;4.50;100.00;101548.32;1750567;82;33711;-80
2021/05/01 03:56:44;;;;;;;12.77;10.63;;;;;;;4.46;100.00;101547.62;1814720;79;26296;-80
2021/05/01 03:59:14;;;;;;;11.33;10.20;;;;;;;4.45;100.00;101547.34;1818633;79;26318;-80
2021/05/01 04:01:44;;;;;;;11.70;10.50;;;;;;;4.35;100.00;101543.73;1826618;77;934910;-80
2021/05/01 04:04:14;;;;;;;12.07;10.80;;;;;;;4.35;100.00;101539.61;1849080;77;26724;-79
2021/05/01 04:06:43;;;;;;;13.57;10.97;;;;;;;4.43;100.00;101544.81;1848981;77;26772;-80
2021/05/01 04:09:13;;;;;;;12.23;11.03;;;;;;;4.43;100.00;101548.09;1849130;77;26631;-80
2021/05/01 04:11:43;;;;;;;12.43;11.13;;;;;;;4.37;100.00;101547.09;1849091;77;26318;-80
2021/05/01 04:14:14;;;;;;;12.73;10.83;;;;;;;4.35;100.00;101552.52;1849000;77;26215;-80
2021/05/01 04:16:44;;;;;;;13.10;11.70;;;;;;;4.43;100.00;101548.94;1848959;77;26203;-79
2021/05/01 04:19:14;;;;;;;12.60;11.40;;;;;;;4.41;100.00;101542.81;1849093;77;26274;-80
2021/05/01 04:21:43;;;;;;;12.47;11.23;;;;;;;4.48;100.00;101549.63;1849023;77;26267;-80
2021/05/01 04:24:13;;;;;;;13.17;11.73;;;;;;;4.37;100.00;101553.96;1848954;77;26203;-79
2021/05/01 04:26:43;;;;;;;13.60;11.10;;;;;;;4.27;100.00;101562.44;1909855;75;26245;-80
2021/05/01 04:29:13;;;;;;;12.47;11.10;;;;;;;4.30;100.00;101560.08;1834619;76;26245;-80
2021/05/01 04:31:43;;;;;;;13.53;11.90;;;;;;;4.18;100.00;101563.80;1834798;77;26364;-79
2021/05/01 04:34:12;;;;;;;12.97;11.60;;;;;;;4.30;100.00;101561.98;1846078;77;26283;-79
2021/05/01 04:36:42;;;;;;;14.33;11.87;;;;;;;4.34;100.00;101569.55;1852782;76;26730;-79
2021/05/01 04:39:13;;;;;;;12.50;10.97;;;;;;;4.27;100.00;101568.78;1873185;76;26706;-80
2021/05/01 04:41:43;;;;;;;14.73;11.90;;;;;;;4.49;100.00;101570.02;1886152;76;26197;-80
2021/05/01 04:44:12;;;;;;;14.30;11.80;;;;;;;4.50;100.00;101570.86;1886165;76;26768;-79
2021/05/01 04:46:42;;;;;;;15.73;11.47;;;;;;;4.16;100.00;101581.88;1885374;76;26686;-80
2021/05/01 04:49:12;;;;;;;13.73;11.30;;;;;;;3.97;100.00;101578.25;1885274;76;26290;-80
2021/05/01 04:51:42;;;;;;;12.93;11.13;;;;;;;3.97;100.00;101582.91;1878380;76;26249;-81
2021/05/01 04:54:13;;;;;;;15.43;12.87;;;;;;;4.02;100.00;101585.83;1863949;77;26332;-80
2021/05/01 04:56:42;;;;;;;15.77;13.43;;;;;;;4.29;100.00;101585.88;1864009;77;26306;-80
2021/05/01 04:59:12;;;;;;;15.17;13.33;;;;;;;4.22;100.00;101586.49;1864003;77;26265;-80
2021/05/01 05:01:42;;;;;;;14.00;11.90;;;;;;;4.46;100.00;101581.48;1864069;77;26302;-80
2021/05/01 05:04:12;;;;;;;15.70;13.27;;;;;;;4.46;100.00;101584.77;1863984;77;26276;-80
2021/05/01 05:06:42;;;;;;;14.20;11.57;;;;;;;4.54;100.00;101577.59;1906231;75;26208;-80
2021/05/01 05:09:12;;;;;;;12.63;11.17;;;;;;;4.40;100.00;101583.78;1906210;75;26294;-79
2021/05/01 05:11:41;;;;;;;11.90;10.67;;;;;;;4.25;100.00;101594.28;1906422;75;26215;-79
2021/05/01 05:14:11;;;;;;;14.10;12.40;;;;;;;4.18;100.00;101589.39;1906272;75;26884;-79
2021/05/01 05:16:41;;;;;;;13.30;11.90;;;;;;;4.20;100.00;101594.11;1906262;75;26165;-79
2021/05/01 05:19:11;;;;;;;13.10;11.33;;;;;;;4.12;100.00;101597.98;1906094;75;26685;-80
2021/05/01 05:21:41;;;;;;;14.73;12.30;;;;;;;4.16;100.00;101604.41;1906144;75;26168;-80
2021/05/01 05:24:11;;;;;;;15.27;12.83;;;;;;;4.18;100.00;101605.88;1906095;75;26230;-79
2021/05/01 05:26:41;;;;;;;15.33;12.50;;;;;;;4.23;100.00;101601.93;1906177;74;26581;-79
2021/05/01 05:29:12;;;;;;;14.23;12.67;;;;;;;4.35;100.00;101605.63;1906245;75;26168;-79
2021/05/01 05:31:44;;;;;;;15.10;13.07;;;;;;;4.40;100.00;101606.32;1906158;73;26344;-79
2021/05/01 05:34:14;;;;;;;15.17;12.23;;;;;;;4.47;100.00;101613.44;1906163;75;26166;-79
2021/05/01 05:36:43;;;;;;;15.20;12.57;;;;;;;4.49;100.00;101614.59;1906065;75;26247;-80
2021/05/01 05:39:14;;;;;;;16.67;13.17;;;;;;;4.54;100.00;101613.35;1906100;75;26242;-80
2021/05/01 05:41:44;;;;;;;15.13;13.03;;;;;;;4.65;100.00;101610.41;1906282;75;26674;-79
2021/05/01 05:44:14;;;;;;;15.97;13.93;;;;;;;4.72;100.00;101614.76;1906179;75;26165;-79
2021/05/01 05:46:44;;;;;;;18.03;14.60;;;;;;;4.88;100.00;101620.19;1906184;75;26614;-79
2021/05/01 05:49:14;;;;;;;18.43;14.70;;;;;;;4.85;100.00;101622.03;1906192;75;26249;-79
2021/05/01 05:51:44;;;;;;;17.40;14.40;;;;;;;4.85;100.00;101621.50;1906172;75;26259;-80
2021/05/01 05:54:14;;;;;;;16.77;14.13;;;;;;;4.93;100.00;101623.94;1906195;75;26160;-79
2021/05/01 05:56:45;;;;;;;19.00;15.10;;;;;;;5.05;100.00;101623.48;1906192;75;26693;-79
2021/05/01 05:59:15;;;;;;;16.87;14.63;;;;;;;5.16;100.00;101628.77;1906052;75;26273;-79
2021/05/01 06:01:47;;;;;;;19.30;15.60;;;;;;;5.12;100.00;101630.83;1906179;75;26647;-79
2021/05/01 06:04:20;;;;;;;16.73;14.87;;;;;;;5.17;100.00;101634.59;1906092;75;26172;-79
2021/05/01 06:06:55;;;;;;;17.73;14.60;;;;;;;5.36;100.00;101633.48;1906178;75;26176;-80
2021/05/01 06:09:25;;;;;;;17.30;14.83;;;;;;;5.43;100.00;101632.03;1906373;75;26682;-79
2021/05/01 06:11:57;;;;;;;16.80;14.97;;;;;;;5.49;100.00;101634.69;1906111;75;26698;-79
2021/05/01 06:14:28;;;;;;;18.77;15.17;;;;;;;5.63;100.00;101635.34;1906150;75;26172;-79
2021/05/01 06:17:00;;;;;;;19.03;15.20;;;;;;;5.67;100.00;101632.96;1906082;75;26156;-79
2021/05/01 06:19:31;;;;;;;18.40;15.80;;;;;;;5.73;100.00;101640.31;1906133;75;26619;-79
2021/05/01 06:22:01;;;;;;;19.13;15.53;;;;;;;5.73;100.00;101635.64;1906238;75;26176;-79
2021/05/01 06:24:31;;;;;;;18.53;16.53;;;;;;;5.70;100.00;101636.62;1906210;75;26168;-79
2021/05/01 06:27:03;;;;;;;18.27;15.93;;;;;;;5.81;100.00;101638.06;1906105;75;26242;-78
2021/05/01 06:29:37;;;;;;;19.80;15.97;;;;;;;5.91;100.00;101639.73;1906204;75;26259;-79
2021/05/01 06:32:09;;;;;;;17.40;15.00;;;;;;;5.93;100.00;101638.13;1906164;73;26285;-79
2021/05/01 06:34:39;;;;;;;17.80;15.90;;;;;;;6.04;100.00;101636.45;1906190;75;26161;-78
2021/05/01 06:37:09;;;;;;;18.63;16.00;;;;;;;6.12;100.00;101638.90;1906005;75;26164;-78
2021/05/01 06:39:40;;;;;;;17.30;15.50;;;;;;;6.21;100.00;101643.81;1906016;75;26184;-78
2021/05/01 06:42:13;;;;;;;18.67;16.40;;;;;;;6.25;100.00;101640.88;1906074;75;26569;-78
2021/05/01 06:44:50;;;;;;;18.80;16.37;;;;;;;6.35;100.00;101641.14;1906038;75;26672;-79
2021/05/01 06:47:24;;;;;;;21.13;17.57;;;;;;;6.45;100.00;101644.70;1906046;75;26673;-78
2021/05/01 06:49:59;;;;;;;19.20;15.93;;;;;;;6.57;100.00;101640.56;1906091;75;26169;-78
2021/05/01 06:52:31;;;;;;;18.10;16.03;;;;;;;6.57;100.00;101642.78;1905798;75;26249;-78
2021/05/01 06:55:04;;;;;;;16.97;15.17;;;;;;;6.58;100.00;101642.25;1906076;75;26371;-78
2021/05/01 06:57:36;;;;;;;20.43;16.07;;;;;;;6.69;100.00;101640.02;1906133;75;26168;-79
2021/05/01 07:00:09;;;;;;;19.50;15.50;;;;;;;6.72;100.00;101634.85;1906083;75;26652;-77
2021/05/01 07:02:41;;;;;;;17.93;15.03;;;;;;;6.77;100.00;101629.45;1905992;75;26708;-78
2021/05/01 07:05:14;;;;;;;18.93;15.10;;;;;;;6.93;100.00;101631.20;1906076;75;26164;-78
2021/05/01 07:07:45;;;;;;;17.17;15.23;;;;;;;7.12;100.00;101633.55;1905876;75;26685;-78
2021/05/01 07:10:17;;;;;;;17.03;14.77;;;;;;;7.17;100.00;101641.95;1906090;75;26181;-79
2021/05/01 07:12:47;;;;;;;16.77;15.07;;;;;;;7.17;100.00;101643.34;1906077;75;26666;-78
2021/05/01 07:15:20;;;;;;;18.47;15.17;;;;;;;7.37;100.00;101643.45;1906030;75;26242;-78
2021/05/01 07:17:53;;;;;;;16.73;14.73;;;;;;;7.57;100.00;101644.70;1906167;75;26246;-78
2021/05/01 07:20:24;;;;;;;16.53;14.80;;;;;;;7.47;100.00;101645.05;1906047;75;26640;-79
2021/05/01 07:22:55;;;;;;;17.13;14.63;;;;;;;7.63;100.00;101647.03;1906123;75;26161;-79
2021/05/01 07:25:24;;;;;;;15.70;14.00;;;;;;;7.83;100.00;101648.80;1906041;75;26276;-79
2021/05/01 07:27:57;;;;;;;17.87;13.93;;;;;;;7.72;100.00;101643.64;1906214;75;26682;-79
2021/05/01 07:30:29;;;;;;;15.67;14.07;;;;;;;7.91;100.00;101644.28;1906044;75;26184;-79
2021/05/01 07:33:03;;;;;;;14.57;13.10;;;;;;;8.09;100.00;101647.34;1905988;72;26294;-79
2021/05/01 07:35:35;;;;;;;14.83;13.10;;;;;;;8.22;100.00;101642.88;1906175;75;26297;-79
2021/05/01 07:38:08;;;;;;;13.63;12.23;;;;;;;8.51;100.00;101634.00;1906097;75;26176;-78
2021/05/01 07:40:39;;;;;;;14.87;12.20;;;;;;;8.70;100.00;101642.33;1906014;75;26246;-79
2021/05/01 07:43:10;;;;;;;12.70;11.13;;;;;;;8.74;100.00;101636.57;1906159;75;26246;-79
2021/05/01 07:45:40;;;;;;;12.43;11.13;;;;;;;8.81;100.00;101640.02;1906091;75;26172;-79
2021/05/01 07:48:13;;;;;;;10.43;8.40;;;;;;;9.02;100.00;101641.15;1906304;75;26253;-79
2021/05/01 07:50:44;;;;;;;11.20;8.23;;;;;;;9.09;100.00;101630.16;1906069;75;26168;-79
2021/05/01 07:53:15;;;;;;;10.40;8.20;;;;;;;9.14;100.00;101637.16;1906223;75;26581;-79
2021/05/01 07:55:45;;;;;;;10.70;7.47;;;;;;;9.33;100.00;101632.12;1906099;75;26238;-79
2021/05/01 07:58:15;;;;;;;8.97;7.53;;;;;;;9.48;100.00;101633.72;1906046;75;26274;-79
2021/05/01 08:00:46;;;;;;;9.90;7.30;;;;;;;9.78;100.00;101627.68;1905972;75;26192;-79
2021/05/01 08:03:17;;;;;;;10.83;7.40;;;;;;;9.78;100.00;101628.22;1906083;75;26289;-79
2021/05/01 08:05:47;;;;;;;9.90;6.80;;;;;;;9.94;100.00;101625.89;1906050;75;26239;-78
2021/05/01 08:08:17;;;;;;;9.30;7.40;;;;;;;10.22;100.00;101621.50;1906088;75;26177;-79
2021/05/01 08:10:47;;;;;;;8.53;5.57;;;;;;;10.09;100.00;101624.67;1906073;75;26269;-79
2021/05/01 08:13:21;;;;;;;11.00;6.30;;;;;;;10.40;100.00;101622.46;1906078;75;26242;-78
2021/05/01 08:15:51;;;;;;;9.03;6.23;;;;;;;10.39;100.00;101624.13;1906178;75;26232;-79
2021/05/01 08:18:21;;;;;;;10.87;6.90;;;;;;;10.27;100.00;101620.70;1906158;75;26168;-79
2021/05/01 08:20:52;;;;;;;9.93;6.80;;;;;;;10.48;100.00;101619.19;1906140;75;26242;-79
2021/05/01 08:23:22;;;;;;;10.33;6.53;;;;;;;10.56;100.00;101617.05;1906241;75;26188;-78
2021/05/01 08:25:52;;;;;;;10.90;6.70;;;;;;;10.79;100.00;101620.80;1906238;75;26169;-78
2021/05/01 08:28:22;;;;;;;9.10;6.40;;;;;;;10.73;100.00;101625.51;1906073;75;26240;-77
2021/05/01 08:30:52;;;;;;;8.40;6.30;;;;;;;10.69;100.00;101621.59;1906067;75;26154;-79
2021/05/01 08:33:23;;;;;;;7.60;6.00;;;;;;;10.67;100.00;101622.39;1906009;74;26223;-79
2021/05/01 08:35:53;;;;;;;7.97;5.83;;;;;;;10.78;100.00;101617.76;1906167;75;26231;-79
2021/05/01 08:38:24;;;;;;;7.17;4.47;;;;;;;10.98;100.00;101617.03;1906288;75;26674;-79
2021/05/01 08:40:54;;;;;;;6.60;4.63;;;;;;;10.76;100.00;101608.29;1906176;75;26331;-78
2021/05/01 08:43:24;;;;;;;10.07;5.87;;;;;;;10.85;100.00;101613.63;1906282;75;26196;-80
2021/05/01 08:45:54;;;;;;;9.23;5.80;;;;;;;10.67;100.00;101616.84;1906112;75;26266;-79
2021/05/01 08:48:26;;;;;;;7.77;5.40;;;;;;;11.14;100.00;101605.72;1906130;75;26211;-79
2021/05/01 08:51:00;;;;;;;9.53;6.87;;;;;;;11.30;100.00;101609.40;1906229;75;26325;-80
2021/05/01 08:53:30;;;;;;;8.37;6.00;;;;;;;11.07;100.00;101603.75;1906149;75;26168;-78
2021/05/01 08:56:00;;;;;;;7.20;5.33;;;;;;;11.64;100.00;101608.41;1906194;75;26160;-79
2021/05/01 08:58:31;;;;;;;7.03;5.27;;;;;;;11.52;100.00;101608.66;1906353;75;26169;-79
2021/05/01 09:01:02;;;;;;;7.77;4.73;;;;;;;11.68;100.00;101600.63;1906217;75;26628;-79
2021/05/01 09:03:32;;;;;;;8.30;5.67;;;;;;;11.78;100.00;101604.03;1906202;75;26617;-79
2021/05/01 09:06:03;;;;;;;7.17;5.00;;;;;;;11.92;100.00;101608.52;1906276;75;26623;-79
2021/05/01 09:08:33;;;;;;;5.43;4.30;;;;;;;11.89;100.00;101610.47;1906217;75;26164;-79
2021/05/01 09:11:05;;;;;;;7.87;5.03;;;;;;;11.77;100.00;101600.96;1906165;75;26611;-79
2021/05/01 09:13:36;;;;;;;7.57;4.13;;;;;;;12.06;100.00;101602.70;1906301;75;26204;-81
2021/05/01 09:16:08;;;;;;;5.07;4.27;;;;;;;12.15;100.00;101599.06;1904437;75;26236;-78
2021/05/01 09:18:51;;;;;;;5.07;4.10;;;;;;;12.56;100.00;101597.69;1906059;75;26257;-78
2021/05/01 09:21:23;;;;;;;4.17;2.97;;;;;;;12.29;100.00;101597.97;1906114;75;26180;-78
2021/05/01 09:23:54;;;;;;;5.63;4.13;;;;;;;12.42;100.00;101596.56;1906264;75;26167;-79
2021/05/01 09:26:37;;;;;;;5.93;3.27;;;;;;;12.52;100.00;101591.00;1906039;75;26354;-78
2021/05/01 09:29:08;;;;;;;3.47;2.60;;;;;;;12.54;100.00;101597.95;1906186;75;26222;-78
2021/05/01 09:31:43;;;;;;;3.83;2.70;;;;;;;12.32;100.00;101598.23;1906447;75;26168;-77
2021/05/01 09:34:13;;;;;;;5.23;3.07;;;;;;;12.69;100.00;101595.72;1906094;72;26294;-78
2021/05/01 09:36:45;;;;;;;5.17;2.90;;;;;;;12.77;100.00;101600.16;1906150;75;26238;-78
2021/05/01 09:39:15;;;;;;;5.67;3.70;;;;;;;12.78;100.00;101594.03;1906030;75;26215;-78
2021/05/01 09:41:46;;;;;;;5.10;3.47;;;;;;;12.74;100.00;101591.53;1906066;75;26180;-79
2021/05/01 09:44:17;;;;;;;6.27;3.90;;;;;;;13.05;100.00;101590.91;1906119;75;26266;-76
2021/05/01 09:46:52;;;;;;;4.27;3.40;;;;;;;12.94;100.00;101585.06;1906031;75;26616;-78
2021/05/01 09:49:25;;;;;;;5.07;3.60;;;;;;;12.89;100.00;101583.67;1906107;74;26176;-76
2021/05/01 09:51:56;;;;;;;5.27;4.40;;;;;;;12.60;100.00;101591.82;1906135;75;26277;-76
2021/05/01 09:54:28;;;;;;;4.40;3.30;;;;;;;12.18;100.00;101587.95;1905999;75;26169;-76
2021/05/01 09:57:00;;;;;;;6.20;3.33;;;;;;;12.26;100.00;101586.83;1906287;75;26632;-80
2021/05/01 09:59:39;;;;;;;6.60;3.60;;;;;;;12.11;100.00;101591.55;1906143;75;26184;-78
2021/05/01 10:02:10;;;;;;;5.67;3.70;;;;;;;12.10;100.00;101582.93;1906079;75;26204;-77
2021/05/01 10:04:42;;;;;;;4.00;2.80;;;;;;;12.32;100.00;101579.33;1906135;75;26250;-79
2021/05/01 10:07:15;;;;;;;5.97;3.47;;;;;;;12.62;100.00;101579.84;1906540;75;26673;-80
2021/05/01 10:09:53;;;;;;;5.00;3.40;;;;;;;12.83;100.00;101575.06;1906239;75;26273;-80
2021/05/01 10:12:19;;;;;;;5.57;3.80;;;;;;;13.16;100.00;101570.24;1904806;75;26165;-81
2021/05/01 10:14:51;;;;;;;4.80;3.30;;;;;;;13.39;100.00;101567.36;1906273;75;26266;-81
2021/05/01 10:17:31;;;;;;;4.33;3.23;;;;;;;13.27;100.00;101572.41;1906236;75;26251;-81
2021/05/01 10:20:07;;;;;;;5.87;3.60;;;;;;;13.24;100.00;101573.83;1906254;75;26580;-80
2021/05/01 10:22:41;;;;;;;5.17;3.00;;;;;;;13.15;100.00;101574.14;1906127;75;26647;-81
2021/05/01 10:25:14;;;;;;;5.97;3.47;;;;;;;13.21;100.00;101571.63;1906151;75;26176;-82
2021/05/01 10:27:52;;;;;;;4.80;3.93;;;;;;;13.19;100.00;101571.89;1906153;75;26173;-81
2021/05/01 10:30:28;;;;;;;4.57;3.50;;;;;;;13.04;100.00;101574.72;1906008;75;26269;-80
2021/05/01 10:33:09;;;;;;;4.37;2.97;;;;;;;12.94;100.00;101577.53;1906238;75;26160;-81
2021/05/01 10:35:35;;;;;;;4.73;3.17;;;;;;;12.98;100.00;101579.19;1905242;75;26208;-80
2021/05/01 10:38:07;;;;;;;3.93;2.90;;;;;;;12.75;100.00;101572.27;1906171;75;26208;-80
2021/05/01 10:40:46;;;;;;;4.30;3.53;;;;;;;12.88;100.00;101572.27;1906261;75;26169;-80
2021/05/01 10:43:19;;;;;;;7.30;4.00;;;;;;;12.72;100.00;101568.66;1906118;75;26238;-80
2021/05/01 10:45:50;;;;;;;4.23;3.33;;;;;;;13.38;100.00;101569.31;1906132;75;26674;-81
2021/05/01 10:48:21;;;;;;;4.43;3.43;;;;;;;13.20;100.00;101571.34;1906142;75;26603;-80
2021/05/01 10:51:07;;;;;;;4.20;3.57;;;;;;;12.94;100.00;101581.72;1906279;75;26616;-80
2021/05/01 10:53:40;;;;;;;4.17;3.30;;;;;;;12.81;100.00;101577.28;1906140;75;26175;-80
2021/05/01 10:56:12;;;;;;;4.20;3.20;;;;;;;12.98;100.00;101573.05;1906129;75;26249;-80
2021/05/01 10:58:45;;;;;;;4.13;2.93;;;;;;;13.12;100.00;101569.98;1906137;75;26172;-79
2021/05/01 11:01:29;;;;;;;3.73;3.20;;;;;;;13.39;100.00;101557.59;1906116;75;26619;-79
2021/05/01 11:04:01;;;;;;;4.03;2.90;;;;;;;13.43;100.00;101560.08;1905955;75;26204;-78
2021/05/01 11:06:33;;;;;;;9.13;2.63;;;;;;;13.16;100.00;101554.34;1906086;75;26168;-78
2021/05/01 11:09:06;;;;;;;2.90;2.60;;;;;;;14.12;100.00;101554.28;1905186;75;26263;-78
2021/05/01 11:11:39;;;;;;;4.53;2.57;;;;;;;14.42;100.00;101547.62;1906129;75;26208;-77
2021/05/01 11:14:18;;;;;;;4.37;3.03;;;;;;;14.80;100.00;101545.30;1906002;75;26584;-79
2021/05/01 11:16:53;;;;;;;3.73;2.90;;;;;;;14.53;100.00;101555.64;1905852;75;26234;-77
2021/05/01 11:19:24;;;;;;;2.67;2.47;;;;;;;13.99;99.89;101558.58;1906088;75;26632;-78
2021/05/01 11:21:55;;;;;;;4.73;3.07;;;;;;;13.84;99.81;101559.26;1905971;75;26188;-78
2021/05/01 11:24:25;;;;;;;3.50;2.60;;;;;;;13.87;100.00;101555.87;1906105;75;26347;-78
2021/05/01 11:26:56;;;;;;;3.47;2.93;;;;;;;14.06;100.00;101548.48;1905938;75;26219;-79
2021/05/01 11:29:27;;;;;;;4.23;2.50;;;;;;;13.67;98.06;101548.48;1906028;75;26301;-78